Time;durP1;ratioP1;P1;durP2;ratioP2;P2;SDS_P1;SDS_P2;PMS_P1;PMS_P2;Temp;Humidity;BMP_temperature;BMP_pressure;BME280_temperature;BME280_humidity;BME280_pressure;Samples;Min_cycle;Max_cycle;Signal;HPM_P1;HPM_P2
2021/12/27 00:01:15;;;;;;;87.83;27.13;;;;;;;-12.66;95.62;97482.03;5069654;28;20291;-55
2021/12/27 00:03:42;;;;;;;92.93;30.60;;;;;;;-12.88;94.34;97490.19;5070060;28;20322;-53
2021/12/27 00:06:10;;;;;;;77.73;27.57;;;;;;;-13.06;93.51;97489.88;5070230;28;20279;-53
2021/12/27 00:08:39;;;;;;;75.37;26.67;;;;;;;-13.09;92.54;97490.69;5069942;28;20290;-55
2021/12/27 00:11:08;;;;;;;62.20;26.23;;;;;;;-13.03;93.19;97498.41;5069316;28;20652;-55
2021/12/27 00:13:35;;;;;;;45.97;18.53;;;;;;;-12.98;94.15;97496.78;5069607;28;20747;-55
2021/12/27 00:16:03;;;;;;;81.63;28.03;;;;;;;-13.02;93.07;97492.50;5068147;28;20286;-55
2021/12/27 00:18:30;;;;;;;86.50;31.57;;;;;;;-13.20;92.35;97499.78;5069453;28;20388;-55
2021/12/27 00:20:57;;;;;;;96.80;35.23;;;;;;;-13.42;91.32;97504.44;5071040;28;20327;-52
2021/12/27 00:23:24;;;;;;;103.87;34.87;;;;;;;-13.56;91.13;97506.72;5070741;28;20291;-53
2021/12/27 00:25:51;;;;;;;104.53;37.60;;;;;;;-13.71;89.38;97510.66;5070930;28;20291;-53
2021/12/27 00:28:19;;;;;;;111.00;41.43;;;;;;;-13.85;89.02;97507.00;5069199;28;20357;-54
2021/12/27 00:30:46;;;;;;;116.43;40.90;;;;;;;-13.99;89.05;97507.56;5069548;28;20751;-54
2021/12/27 00:33:13;;;;;;;125.37;42.07;;;;;;;-14.14;88.68;97514.03;5069209;28;20347;-54
2021/12/27 00:35:41;;;;;;;146.30;45.33;;;;;;;-14.26;88.35;97514.59;5068300;28;20369;-54
2021/12/27 00:38:08;;;;;;;102.27;26.23;;;;;;;-14.31;89.11;97512.81;5069162;28;20652;-55
2021/12/27 00:40:36;;;;;;;98.60;30.53;;;;;;;-14.15;89.95;97505.56;5068965;28;20956;-55
2021/12/27 00:43:03;;;;;;;86.13;29.07;;;;;;;-13.98;90.59;97506.78;5068035;28;20283;-56
2021/12/27 00:45:31;;;;;;;48.53;18.47;;;;;;;-13.78;91.07;97511.38;5069915;28;20385;-56
2021/12/27 00:47:59;;;;;;;104.73;35.00;;;;;;;-13.83;91.66;97505.34;5071073;28;20295;-55
2021/12/27 00:50:26;;;;;;;107.87;28.43;;;;;;;-13.83;91.83;97512.94;5066642;28;20302;-54
2021/12/27 00:52:53;;;;;;;85.43;28.70;;;;;;;-14.07;92.56;97506.56;5069050;28;20699;-55
2021/12/27 00:55:21;;;;;;;87.53;34.37;;;;;;;-14.03;92.95;97513.41;5069105;28;20306;-55
2021/12/27 00:57:49;;;;;;;98.73;36.43;;;;;;;-13.88;93.26;97512.00;5067862;28;20301;-55
2021/12/27 01:00:19;;;;;;;97.87;32.40;;;;;;;-13.84;92.22;97503.66;5069063;28;20298;-52
2021/12/27 01:02:47;;;;;;;141.70;45.07;;;;;;;-13.98;90.65;97506.78;5068842;28;20329;-55
2021/12/27 01:05:15;;;;;;;94.30;31.93;;;;;;;-14.03;90.44;97508.34;5069027;28;20295;-56
2021/12/27 01:07:44;;;;;;;43.87;14.30;;;;;;;-13.92;91.39;97506.03;5068397;28;20795;-56
2021/12/27 01:10:31;;;;;;;42.37;12.67;;;;;;;-13.84;91.69;97503.66;5068557;28;20313;-54
2021/12/27 01:13:06;;;;;;;108.10;17.27;;;;;;;-13.72;91.79;97498.81;5069766;28;20314;-54
2021/12/27 01:15:47;;;;;;;77.13;16.27;;;;;;;-13.63;92.55;97509.13;5069623;28;20283;-54
2021/12/27 01:18:16;;;;;;;53.80;17.07;;;;;;;-13.59;93.67;97503.28;5066475;28;20290;-56
2021/12/27 01:20:44;;;;;;;66.37;22.90;;;;;;;-13.71;94.09;97503.91;5069901;28;20326;-55
2021/12/27 01:23:11;;;;;;;89.70;27.17;;;;;;;-13.82;94.40;97505.38;5069900;28;20305;-57
2021/12/27 01:25:38;;;;;;;49.13;17.93;;;;;;;-13.63;95.56;97501.53;5069479;28;20304;-55
2021/12/27 01:28:06;;;;;;;35.80;15.87;;;;;;;-13.48;95.20;97495.06;5070934;28;20283;-55
2021/12/27 01:30:37;;;;;;;64.57;22.20;;;;;;;-13.35;96.25;97501.19;5069618;28;20527;-56
2021/12/27 01:33:08;;;;;;;37.63;13.83;;;;;;;-13.37;95.29;97507.94;5069558;28;20290;-55
2021/12/27 01:35:36;;;;;;;40.30;18.83;;;;;;;-13.30;95.96;97497.09;5069587;28;20369;-56
2021/12/27 01:38:04;;;;;;;32.70;12.50;;;;;;;-13.27;95.69;97495.44;5069421;28;20313;-55
2021/12/27 01:40:32;;;;;;;36.70;15.80;;;;;;;-13.19;96.19;97498.13;5069575;28;20301;-54
2021/12/27 01:43:10;;;;;;;30.03;10.63;;;;;;;-13.09;96.37;97502.50;5068997;28;20794;-56
2021/12/27 01:45:41;;;;;;;28.83;10.50;;;;;;;-13.11;96.46;97505.03;5069500;28;20356;-55
2021/12/27 01:48:08;;;;;;;26.00;10.80;;;;;;;-13.07;97.50;97500.84;5072678;28;20398;-55
2021/12/27 01:50:37;;;;;;;31.20;13.47;;;;;;;-13.04;97.71;97501.75;5073183;28;20373;-52
2021/12/27 01:53:05;;;;;;;49.73;16.17;;;;;;;-13.01;97.93;97503.50;5072945;28;20293;-51
2021/12/27 01:55:32;;;;;;;43.67;17.37;;;;;;;-13.05;98.65;97499.22;5073008;28;20291;-52
2021/12/27 01:57:59;;;;;;;35.20;13.53;;;;;;;-13.03;99.05;97495.88;5073073;28;20278;-55
2021/12/27 02:00:27;;;;;;;54.27;17.83;;;;;;;-13.05;98.65;97496.69;5072577;28;20297;-55
2021/12/27 02:02:54;;;;;;;45.23;14.60;;;;;;;-13.03;99.02;97500.06;5071644;28;20287;-54
2021/12/27 02:05:21;;;;;;;34.30;13.13;;;;;;;-12.97;98.67;97497.66;5071415;28;20360;-55
2021/12/27 02:07:49;;;;;;;25.03;10.03;;;;;;;-12.92;99.07;97498.56;5070988;28;20331;-55
2021/12/27 02:10:16;;;;;;;28.87;13.20;;;;;;;-12.88;99.60;97497.78;5072680;28;20282;-56
2021/12/27 02:12:44;;;;;;;23.73;10.60;;;;;;;-12.85;99.58;97485.16;5072784;28;20351;-55
2021/12/27 02:15:16;;;;;;;25.70;11.23;;;;;;;-12.81;99.39;97486.88;5072564;28;20643;-56
2021/12/27 02:17:45;;;;;;;25.30;9.23;;;;;;;-12.78;98.84;97487.78;5070423;28;20287;-56
2021/12/27 02:20:18;;;;;;;23.90;9.33;;;;;;;-12.77;99.28;97484.44;5072770;28;20410;-55
2021/12/27 02:22:45;;;;;;;22.55;8.52;;;;;;;-12.73;99.12;97483.66;5072571;28;20317;-54
2021/12/27 02:25:13;;;;;;;19.73;7.10;;;;;;;-12.70;99.89;97486.22;5072489;28;20127;-55
2021/12/27 02:27:40;;;;;;;14.70;6.47;;;;;;;-12.67;99.42;97486.25;5073312;28;20394;-55
2021/12/27 02:30:11;;;;;;;19.77;9.47;;;;;;;-12.65;99.64;97493.88;5074058;28;20341;-51
2021/12/27 02:32:46;;;;;;;20.77;7.23;;;;;;;-12.67;99.50;97478.66;5071068;28;20294;-54
2021/12/27 02:35:17;;;;;;;23.33;8.10;;;;;;;-12.68;99.42;97483.72;5071618;28;20382;-56
2021/12/27 02:37:44;;;;;;;20.00;6.80;;;;;;;-12.68;99.49;97487.09;5072343;28;20723;-55
2021/12/27 02:40:11;;;;;;;17.47;7.43;;;;;;;-12.69;98.61;97482.00;5072143;28;20294;-57
2021/12/27 02:42:53;;;;;;;20.40;7.33;;;;;;;-12.69;99.13;97490.47;5071765;28;20352;-55
2021/12/27 02:45:21;;;;;;;21.97;6.87;;;;;;;-12.68;99.49;97492.16;5073798;28;20402;-56
2021/12/27 02:47:48;;;;;;;12.87;6.33;;;;;;;-12.61;98.99;97488.03;5073667;28;20295;-56
2021/12/27 02:50:17;;;;;;;18.97;8.43;;;;;;;-12.68;98.87;97484.56;5072882;28;20732;-57
2021/12/27 02:52:44;;;;;;;19.03;7.37;;;;;;;-12.68;99.16;97484.56;5072056;28;20304;-55
2021/12/27 02:55:13;;;;;;;16.93;6.43;;;;;;;-12.60;99.50;97488.03;5072058;28;20376;-55
2021/12/27 02:57:40;;;;;;;16.63;5.90;;;;;;;-12.64;98.63;97490.53;5070724;28;20293;-55
2021/12/27 03:00:15;;;;;;;18.23;7.20;;;;;;;-12.75;97.27;97492.88;5071987;28;20822;-55
2021/12/27 03:02:43;;;;;;;16.17;7.73;;;;;;;-12.85;97.84;97492.78;5071598;28;20366;-55
2021/12/27 03:05:11;;;;;;;15.60;7.27;;;;;;;-12.94;96.59;97497.69;5071674;28;20393;-54
2021/12/27 03:07:40;;;;;;;20.47;8.00;;;;;;;-13.01;96.78;97506.88;5070374;28;20295;-55
2021/12/27 03:10:07;;;;;;;24.03;8.37;;;;;;;-13.01;97.00;97503.50;5071458;28;20291;-55
2021/12/27 03:12:34;;;;;;;17.47;8.77;;;;;;;-13.00;96.77;97500.97;5071517;28;20904;-58
2021/12/27 03:15:01;;;;;;;18.67;7.60;;;;;;;-13.03;95.81;97502.59;5071693;28;20317;-54
2021/12/27 03:17:28;;;;;;;29.13;8.40;;;;;;;-13.08;96.46;97497.44;5071413;28;20373;-53
2021/12/27 03:19:55;;;;;;;14.70;7.30;;;;;;;-13.14;96.13;97496.50;5071434;28;20368;-56
2021/12/27 03:22:22;;;;;;;23.17;10.20;;;;;;;-13.22;95.58;97498.06;5072749;28;20378;-54
2021/12/27 03:24:50;;;;;;;18.03;8.43;;;;;;;-13.27;95.34;97502.22;5071209;28;20303;-54
2021/12/27 03:27:17;;;;;;;21.57;9.73;;;;;;;-13.39;95.20;97497.78;5071879;28;20348;-55
2021/12/27 03:29:44;;;;;;;25.27;11.77;;;;;;;-13.46;94.43;97505.22;5072019;28;20301;-55
2021/12/27 03:32:11;;;;;;;36.67;12.03;;;;;;;-13.50;93.92;97500.94;5071334;28;20294;-56
2021/12/27 03:34:42;;;;;;;27.73;10.90;;;;;;;-13.59;93.48;97498.25;5071058;28;20297;-54
2021/12/27 03:37:10;;;;;;;32.67;12.17;;;;;;;-13.67;92.60;97494.72;5070824;28;20322;-55
2021/12/27 03:39:36;;;;;;;32.87;10.90;;;;;;;-13.67;93.54;97497.25;5068487;28;20719;-56
2021/12/27 03:42:05;;;;;;;29.37;11.03;;;;;;;-13.61;92.71;97498.22;5070738;28;20322;-56
2021/12/27 03:44:32;;;;;;;22.47;11.00;;;;;;;-13.62;93.22;97504.09;5071345;28;20298;-56
2021/12/27 03:46:59;;;;;;;24.17;11.07;;;;;;;-13.62;92.95;97498.19;5069991;28;20310;-56
2021/12/27 03:49:26;;;;;;;22.37;9.03;;;;;;;-13.58;92.87;97502.47;5070366;28;20378;-56
2021/12/27 03:51:52;;;;;;;21.93;8.83;;;;;;;-13.65;91.86;97506.56;5070238;28;20293;-55
2021/12/27 03:54:19;;;;;;;25.73;9.20;;;;;;;-13.62;91.17;97503.25;5070359;28;20278;-55
2021/12/27 03:56:46;;;;;;;27.87;9.03;;;;;;;-13.61;91.40;97502.41;5070666;28;20759;-53
2021/12/27 03:59:22;;;;;;;19.53;7.77;;;;;;;-13.57;90.62;97504.16;5070648;28;20612;-54
2021/12/27 04:01:50;;;;;;;28.30;8.10;;;;;;;-13.62;89.94;97496.50;5071067;28;20814;-56
2021/12/27 04:04:22;;;;;;;28.90;10.70;;;;;;;-13.60;89.86;97499.91;5070683;28;20297;-55
2021/12/27 04:06:49;;;;;;;22.37;9.60;;;;;;;-13.60;89.31;97506.66;5070830;28;20297;-54
2021/12/27 04:09:20;;;;;;;29.33;11.17;;;;;;;-13.66;89.17;97507.41;5071082;28;20297;-56
2021/12/27 04:11:47;;;;;;;24.13;10.43;;;;;;;-13.77;89.18;97506.34;5070890;28;20293;-55
2021/12/27 04:14:15;;;;;;;26.50;9.37;;;;;;;-13.78;88.91;97498.72;5070428;28;20283;-54
2021/12/27 04:16:42;;;;;;;24.77;9.27;;;;;;;-13.83;88.54;97510.41;5070617;28;20279;-53
2021/12/27 04:19:09;;;;;;;29.10;9.17;;;;;;;-13.93;87.63;97508.53;5071999;28;20373;-55
2021/12/27 04:21:35;;;;;;;24.30;9.83;;;;;;;-14.02;88.34;97504.97;5071678;28;20355;-53
2021/12/27 04:24:02;;;;;;;29.27;10.60;;;;;;;-13.97;87.76;97515.19;5070231;28;20290;-54
2021/12/27 04:26:29;;;;;;;37.43;10.90;;;;;;;-13.89;88.00;97510.31;5070299;28;20305;-55
2021/12/27 04:28:56;;;;;;;29.90;10.63;;;;;;;-13.95;86.83;97522.00;5067428;28;20290;-54
2021/12/27 04:31:25;;;;;;;27.30;9.93;;;;;;;-13.92;87.59;97527.13;5070383;28;20305;-53
2021/12/27 04:33:51;;;;;;;30.33;9.97;;;;;;;-13.86;87.41;97521.31;5069294;28;20308;-54
2021/12/27 04:36:18;;;;;;;27.80;9.20;;;;;;;-13.82;86.91;97525.63;5071122;28;20704;-55
2021/12/27 04:38:45;;;;;;;21.87;8.90;;;;;;;-13.73;86.54;97528.34;5070314;28;20290;-56
2021/12/27 04:41:15;;;;;;;26.63;9.60;;;;;;;-13.69;86.85;97524.19;5070028;28;20290;-58
2021/12/27 04:43:42;;;;;;;27.97;9.33;;;;;;;-13.72;86.23;97519.94;5070050;28;20286;-55
2021/12/27 04:46:09;;;;;;;27.73;9.93;;;;;;;-13.75;86.86;97519.00;5070022;28;20297;-55
2021/12/27 04:48:37;;;;;;;24.60;9.10;;;;;;;-13.77;86.20;97516.47;5070392;28;20287;-52
2021/12/27 04:51:04;;;;;;;30.10;10.57;;;;;;;-13.73;86.26;97518.22;5070923;28;20666;-54
2021/12/27 04:53:31;;;;;;;26.67;13.77;;;;;;;-13.68;86.65;97524.22;5070532;28;20291;-55
2021/12/27 04:55:58;;;;;;;29.73;9.90;;;;;;;-13.66;86.88;97522.59;5070355;28;20291;-53
2021/12/27 04:58:25;;;;;;;29.23;11.63;;;;;;;-13.65;86.36;97533.53;5070069;28;20856;-54
2021/12/27 05:00:54;;;;;;;29.70;10.60;;;;;;;-13.71;86.46;97533.44;5069664;28;20307;-53
2021/12/27 05:03:21;;;;;;;33.97;11.77;;;;;;;-13.69;86.37;97535.16;5069826;28;20297;-55
2021/12/27 05:05:49;;;;;;;35.67;11.37;;;;;;;-13.66;86.30;97537.78;5068774;28;20305;-52
2021/12/27 05:08:16;;;;;;;40.90;11.43;;;;;;;-13.64;86.05;97531.03;5067412;28;20297;-55
2021/12/27 05:10:43;;;;;;;29.77;11.43;;;;;;;-13.68;86.63;97525.88;5069706;28;20369;-56
2021/12/27 05:13:09;;;;;;;28.23;10.80;;;;;;;-13.61;86.89;97535.31;5069835;28;20665;-55
2021/12/27 05:15:36;;;;;;;31.43;12.40;;;;;;;-13.47;85.98;97526.28;5069530;28;20819;-55
2021/12/27 05:18:06;;;;;;;31.60;10.37;;;;;;;-13.36;85.57;97534.94;5069724;28;20290;-55
2021/12/27 05:20:33;;;;;;;35.47;11.73;;;;;;;-13.44;85.88;97537.34;5069679;28;20372;-55
2021/12/27 05:23:01;;;;;;;24.67;10.57;;;;;;;-13.48;85.78;97534.72;5073600;28;20286;-54
2021/12/27 05:25:28;;;;;;;28.77;9.87;;;;;;;-13.59;86.02;97541.25;5073249;28;20351;-54
2021/12/27 05:27:55;;;;;;;24.20;9.10;;;;;;;-13.58;87.26;97543.81;5073583;28;20309;-54
2021/12/27 05:30:22;;;;;;;31.77;9.97;;;;;;;-13.52;86.86;97543.09;5073914;28;20377;-55
2021/12/27 05:32:49;;;;;;;30.23;9.83;;;;;;;-13.64;87.15;97540.28;5074019;28;20378;-56
2021/12/27 05:35:16;;;;;;;27.33;9.40;;;;;;;-13.63;87.07;97539.50;5073516;28;20290;-55
2021/12/27 05:37:45;;;;;;;25.10;9.97;;;;;;;-13.64;87.37;97541.16;5072129;28;20301;-54
2021/12/27 05:40:17;;;;;;;31.23;11.93;;;;;;;-13.69;88.11;97539.38;5073365;28;20638;-54
2021/12/27 05:42:44;;;;;;;33.60;12.37;;;;;;;-13.64;88.42;97541.16;5073026;28;20283;-54
2021/12/27 05:45:11;;;;;;;30.77;10.67;;;;;;;-13.69;88.46;97550.34;5073227;28;20647;-53
2021/12/27 05:47:38;;;;;;;29.20;11.10;;;;;;;-13.70;87.65;97545.25;5073014;28;20766;-54
2021/12/27 05:50:07;;;;;;;29.47;10.90;;;;;;;-13.76;88.03;97537.53;5072972;28;20309;-55
2021/12/27 05:52:34;;;;;;;36.07;11.33;;;;;;;-13.71;87.65;97551.16;5073159;28;20291;-55
2021/12/27 05:55:01;;;;;;;42.80;12.63;;;;;;;-13.71;88.02;97544.38;5073255;28;20289;-53
2021/12/27 05:57:29;;;;;;;29.77;11.83;;;;;;;-13.64;87.89;97540.28;5071333;28;20731;-54
2021/12/27 05:59:57;;;;;;;27.03;10.27;;;;;;;-13.66;88.96;97539.44;5072920;28;20290;-52
2021/12/27 06:02:24;;;;;;;35.07;11.30;;;;;;;-13.54;88.74;97538.00;5073126;28;20293;-55
2021/12/27 06:04:51;;;;;;;32.17;10.57;;;;;;;-13.51;88.12;97543.13;5072642;28;20325;-55
2021/12/27 06:07:18;;;;;;;38.33;12.43;;;;;;;-13.40;88.04;97544.16;5072617;28;20305;-55
2021/12/27 06:09:45;;;;;;;30.77;11.47;;;;;;;-13.37;88.95;97539.13;5072573;28;20299;-55
2021/12/27 06:12:12;;;;;;;38.77;11.43;;;;;;;-13.37;88.66;97543.38;5072414;28;20294;-53
2021/12/27 06:14:40;;;;;;;26.97;10.13;;;;;;;-13.24;88.44;97547.81;5072538;28;20286;-55
2021/12/27 06:17:07;;;;;;;29.17;9.83;;;;;;;-13.21;87.88;97540.28;5072590;28;20323;-56
2021/12/27 06:19:34;;;;;;;32.47;11.47;;;;;;;-13.19;88.99;97557.19;5072304;28;20299;-54
2021/12/27 06:22:02;;;;;;;32.60;13.10;;;;;;;-13.25;87.95;97548.66;5072908;28;20318;-55
2021/12/27 06:24:28;;;;;;;28.40;11.17;;;;;;;-13.22;88.44;97554.63;5072306;28;20290;-52
2021/12/27 06:26:55;;;;;;;33.20;12.90;;;;;;;-13.16;88.28;97558.97;5072137;28;20298;-53
2021/12/27 06:29:22;;;;;;;28.83;12.03;;;;;;;-13.25;88.29;97559.63;5072419;28;20666;-54
2021/12/27 06:31:50;;;;;;;35.80;13.40;;;;;;;-13.18;88.48;97556.41;5072340;28;20322;-53
2021/12/27 06:34:17;;;;;;;35.97;12.07;;;;;;;-13.16;89.31;97548.84;5072286;28;20293;-54
2021/12/27 06:36:44;;;;;;;44.00;13.13;;;;;;;-13.22;88.37;97557.16;5072346;28;20764;-51
2021/12/27 06:39:11;;;;;;;34.20;13.80;;;;;;;-13.19;88.99;97551.31;5072013;28;20306;-53
2021/12/27 06:41:38;;;;;;;32.10;12.40;;;;;;;-13.10;88.82;97544.72;5073102;28;20326;-55
2021/12/27 06:44:06;;;;;;;30.73;11.60;;;;;;;-13.10;89.02;97536.25;5072910;28;20282;-54
2021/12/27 06:46:33;;;;;;;37.47;11.80;;;;;;;-13.05;89.07;97532.13;5072208;28;20414;-51
2021/12/27 06:49:01;;;;;;;33.50;12.40;;;;;;;-13.02;89.66;97534.69;5072073;28;21196;-53
2021/12/27 06:51:29;;;;;;;36.53;12.40;;;;;;;-12.94;89.65;97536.53;5072014;28;20326;-56
2021/12/27 06:53:56;;;;;;;30.27;11.47;;;;;;;-12.87;88.89;97534.94;5071366;28;20779;-53
2021/12/27 06:56:23;;;;;;;26.63;11.97;;;;;;;-12.76;88.63;97541.00;5071519;28;20305;-54
2021/12/27 06:58:50;;;;;;;22.97;9.00;;;;;;;-12.53;89.45;97544.78;5071671;28;20294;-54
2021/12/27 07:01:17;;;;;;;28.80;11.00;;;;;;;-12.41;88.59;97530.63;5071192;28;20380;-52
2021/12/27 07:03:44;;;;;;;25.00;9.63;;;;;;;-12.51;87.83;97538.03;5072738;28;20382;-53
2021/12/27 07:06:12;;;;;;;30.80;9.53;;;;;;;-12.45;87.38;97541.50;5071079;28;20651;-54
2021/12/27 07:08:39;;;;;;;25.70;9.70;;;;;;;-12.46;88.21;97541.53;5070865;28;20374;-55
2021/12/27 07:11:06;;;;;;;29.20;11.37;;;;;;;-12.33;87.15;97539.19;5070154;28;20293;-53
2021/12/27 07:13:33;;;;;;;25.10;10.57;;;;;;;-12.23;87.75;97541.00;5071442;28;20291;-53
2021/12/27 07:16:00;;;;;;;29.17;9.47;;;;;;;-12.17;86.95;97535.16;5072608;28;20287;-55
2021/12/27 07:18:27;;;;;;;23.23;9.70;;;;;;;-12.07;87.89;97542.06;5071337;28;20693;-71
2021/12/27 07:20:55;;;;;;;32.53;9.90;;;;;;;-11.98;86.76;97542.22;5071681;28;20373;-69
2021/12/27 07:23:23;;;;;;;18.77;8.00;;;;;;;-11.87;86.55;97549.09;5071679;28;20314;-69
2021/12/27 07:25:50;;;;;;;25.70;8.80;;;;;;;-11.83;86.74;97545.78;5071012;28;20309;-68
2021/12/27 07:28:17;;;;;;;30.80;11.87;;;;;;;-11.72;86.17;97543.38;5070891;28;20363;-67
2021/12/27 07:30:44;;;;;;;26.50;10.27;;;;;;;-11.62;87.15;97542.63;5071208;28;20290;-68
2021/12/27 07:33:11;;;;;;;34.27;13.87;;;;;;;-11.68;86.92;97548.50;5071205;28;20295;-67
2021/12/27 07:35:38;;;;;;;35.83;12.53;;;;;;;-11.69;86.30;97551.00;5071129;28;20290;-66
2021/12/27 07:38:06;;;;;;;38.17;15.37;;;;;;;-11.65;85.49;97542.63;5071156;28;20291;-65
2021/12/27 07:40:34;;;;;;;33.97;13.53;;;;;;;-11.73;86.68;97539.13;5070717;28;20836;-65
2021/12/27 07:43:01;;;;;;;38.63;14.33;;;;;;;-11.76;85.46;97549.25;5070786;28;20289;-65
2021/12/27 07:45:29;;;;;;;29.80;11.53;;;;;;;-11.73;85.93;97547.59;5069354;28;20279;-65
2021/12/27 07:47:57;;;;;;;32.73;12.67;;;;;;;-11.57;86.08;97551.19;5070439;28;20294;-65
2021/12/27 07:50:24;;;;;;;28.73;11.07;;;;;;;-11.28;86.21;97552.38;5070122;28;20286;-65
2021/12/27 07:52:51;;;;;;;29.73;10.70;;;;;;;-11.08;84.87;97545.78;5070954;28;20294;-64
2021/12/27 07:55:19;;;;;;;20.30;9.27;;;;;;;-10.92;85.17;97547.59;5068587;28;20821;-65
2021/12/27 07:57:47;;;;;;;28.00;10.20;;;;;;;-10.75;84.35;97535.91;5069393;28;20295;-64
2021/12/27 08:00:15;;;;;;;26.57;9.13;;;;;;;-10.79;85.00;97541.81;5070173;28;20774;-65
2021/12/27 08:02:43;;;;;;;30.00;10.30;;;;;;;-10.89;84.68;97540.88;5071099;28;20294;-65
2021/12/27 08:05:11;;;;;;;22.23;9.67;;;;;;;-10.86;84.86;97540.03;5070586;28;20293;-64
2021/12/27 08:07:38;;;;;;;32.97;10.50;;;;;;;-10.84;84.20;97539.22;5070350;28;20297;-65
2021/12/27 08:10:07;;;;;;;26.80;10.13;;;;;;;-10.83;84.32;97540.91;5070448;28;20290;-65
2021/12/27 08:12:33;;;;;;;38.57;11.93;;;;;;;-10.51;83.91;97536.09;5067742;28;20308;-65
2021/12/27 08:15:03;;;;;;;38.33;14.83;;;;;;;-10.16;83.62;97534.66;5069718;28;20708;-65
2021/12/27 08:17:30;;;;;;;34.20;11.97;;;;;;;-10.01;82.26;97534.75;5068459;28;20321;-65
2021/12/27 08:19:57;;;;;;;38.83;13.33;;;;;;;-9.92;81.36;97544.97;5069287;28;20291;-65
2021/12/27 08:22:23;;;;;;;45.13;14.67;;;;;;;-9.66;80.74;97535.78;5069449;28;20286;-65
2021/12/27 08:24:51;;;;;;;31.40;11.47;;;;;;;-9.06;80.36;97530.88;5065941;28;20329;-65
2021/12/27 08:27:20;;;;;;;33.97;13.93;;;;;;;-8.87;78.66;97522.41;5069455;28;20305;-67
2021/12/27 08:29:47;;;;;;;34.77;12.50;;;;;;;-8.71;77.80;97516.44;5071646;28;20302;-66
2021/12/27 08:32:15;;;;;;;29.00;11.27;;;;;;;-8.44;77.98;97518.13;5069228;28;20369;-66
2021/12/27 08:34:43;;;;;;;26.90;11.60;;;;;;;-8.80;77.21;97520.69;5070362;28;20286;-66
2021/12/27 08:37:10;;;;;;;32.67;12.73;;;;;;;-9.20;77.91;97514.69;5070745;28;20282;-66
2021/12/27 08:39:38;;;;;;;22.77;10.67;;;;;;;-9.52;78.53;97511.19;5065767;28;20838;-64
2021/12/27 08:42:07;;;;;;;38.97;13.80;;;;;;;-9.61;79.63;97508.63;5069508;28;20290;-67
2021/12/27 08:44:35;;;;;;;30.03;9.83;;;;;;;-9.58;79.50;97508.63;5068652;28;20904;-67
2021/12/27 08:47:02;;;;;;;28.60;9.93;;;;;;;-9.55;79.78;97512.88;5067145;28;20759;-67
2021/12/27 08:49:31;;;;;;;25.50;10.17;;;;;;;-9.42;79.62;97510.38;5070901;28;20283;-65
2021/12/27 08:51:58;;;;;;;30.13;10.23;;;;;;;-9.27;79.85;97507.88;5068315;28;20286;-59
2021/12/27 08:54:25;;;;;;;24.73;9.90;;;;;;;-9.07;79.77;97503.69;5069325;28;20343;-68
2021/12/27 08:56:52;;;;;;;25.43;9.00;;;;;;;-8.89;79.84;97501.13;5072208;28;20298;-68
2021/12/27 08:59:19;;;;;;;17.57;8.20;;;;;;;-8.80;79.59;97498.59;5073163;28;20298;-68
2021/12/27 09:01:46;;;;;;;23.50;8.13;;;;;;;-8.70;79.69;97499.47;5073724;28;20302;-68
2021/12/27 09:04:13;;;;;;;21.80;7.40;;;;;;;-8.69;79.90;97491.81;5072900;28;20348;-66
2021/12/27 09:06:41;;;;;;;17.03;6.50;;;;;;;-8.74;80.21;97488.41;5071892;28;20319;-67
2021/12/27 09:09:08;;;;;;;17.73;6.70;;;;;;;-8.67;80.59;97502.00;5071091;28;20719;-67
2021/12/27 09:11:35;;;;;;;15.63;6.93;;;;;;;-8.52;81.01;97497.72;5073421;28;20785;-66
2021/12/27 09:14:02;;;;;;;18.40;6.77;;;;;;;-8.41;80.98;97503.66;5074597;28;20314;-69
2021/12/27 09:16:29;;;;;;;13.83;5.63;;;;;;;-8.40;80.91;97504.50;5071888;28;20294;-68
2021/12/27 09:18:56;;;;;;;18.70;8.07;;;;;;;-8.34;81.53;97494.31;5074591;28;20373;-68
2021/12/27 09:21:24;;;;;;;21.87;7.63;;;;;;;-8.20;81.46;97490.03;5072360;28;20318;-67
2021/12/27 09:23:53;;;;;;;21.80;9.97;;;;;;;-8.09;80.86;97491.69;5072191;28;20782;-61
2021/12/27 09:26:20;;;;;;;22.50;8.20;;;;;;;-8.01;81.00;97484.03;5069918;28;20325;-62
2021/12/27 09:28:47;;;;;;;22.13;8.20;;;;;;;-7.91;80.63;97485.69;5068481;28;20299;-64
2021/12/27 09:31:14;;;;;;;18.37;6.70;;;;;;;-7.51;81.17;97477.88;5070098;28;20385;-67
2021/12/27 09:33:41;;;;;;;17.03;6.13;;;;;;;-7.28;80.72;97477.78;5070310;28;20374;-67
2021/12/27 09:36:09;;;;;;;21.43;7.07;;;;;;;-7.19;80.95;97472.59;5070042;28;20286;-64
2021/12/27 09:38:36;;;;;;;16.60;6.77;;;;;;;-7.07;81.22;97475.06;5071745;28;20341;-68
2021/12/27 09:41:04;;;;;;;16.40;5.10;;;;;;;-6.87;80.47;97468.97;5072805;28;20322;-72
2021/12/27 09:43:31;;;;;;;12.17;4.67;;;;;;;-6.74;79.90;97462.03;5073269;28;20294;-59
2021/12/27 09:45:58;;;;;;;14.87;4.83;;;;;;;-6.68;79.63;97452.59;5071783;28;20873;-58
2021/12/27 09:48:25;;;;;;;8.27;3.60;;;;;;;-6.64;79.80;97449.19;5070371;28;20299;-56
2021/12/27 09:50:57;;;;;;;8.07;3.20;;;;;;;-6.60;79.70;97440.59;5071728;28;20340;-60
2021/12/27 09:53:24;;;;;;;9.40;4.13;;;;;;;-6.55;79.12;97450.78;5072257;28;20859;-59
2021/12/27 09:55:51;;;;;;;10.13;3.37;;;;;;;-6.48;78.60;97437.94;5071554;28;20285;-58
2021/12/27 09:58:20;;;;;;;9.87;2.80;;;;;;;-6.56;78.86;97432.03;5070487;28;20378;-57
2021/12/27 10:00:53;;;;;;;9.97;3.00;;;;;;;-6.61;78.67;97444.00;5070108;28;20966;-59
2021/12/27 10:03:24;;;;;;;10.93;4.38;;;;;;;-6.63;79.18;97437.22;5069749;28;20789;-58
2021/12/27 10:05:52;;;;;;;6.70;2.67;;;;;;;-6.58;78.30;97438.03;5070860;28;20052;-57
2021/12/27 10:08:21;;;;;;;5.40;3.20;;;;;;;-6.56;79.41;97439.72;5070290;28;20295;-57
2021/12/27 10:10:48;;;;;;;6.87;3.33;;;;;;;-6.47;78.76;97431.94;5069931;28;20847;-62
2021/12/27 10:13:15;;;;;;;14.80;3.37;;;;;;;-6.46;78.88;97425.13;5071002;28;20377;-58
2021/12/27 10:15:47;;;;;;;7.00;2.90;;;;;;;-6.41;78.14;97433.59;5070007;28;20309;-57
2021/12/27 10:18:15;;;;;;;5.23;2.47;;;;;;;-6.53;77.93;97438.84;5069212;28;20078;-58
2021/12/27 10:20:43;;;;;;;6.90;3.40;;;;;;;-6.57;77.38;97432.88;5070409;28;20295;-56
2021/12/27 10:23:12;;;;;;;6.60;3.70;;;;;;;-6.64;77.21;97438.94;5067930;28;20301;-58
2021/12/27 10:25:39;;;;;;;8.77;3.20;;;;;;;-6.66;77.23;97435.53;5070525;28;20920;-56
2021/12/27 10:28:07;;;;;;;5.13;2.80;;;;;;;-6.66;77.66;97435.53;5069902;28;20307;-57
2021/12/27 10:30:37;;;;;;;11.70;3.60;;;;;;;-6.61;77.57;97431.22;5069646;28;20314;-58
2021/12/27 10:33:12;;;;;;;8.60;2.33;;;;;;;-6.60;77.14;97422.69;5067978;28;20345;-59
2021/12/27 10:35:41;;;;;;;10.10;3.33;;;;;;;-6.64;76.83;97426.16;5068769;28;20299;-57
2021/12/27 10:38:20;;;;;;;10.87;3.60;;;;;;;-6.50;76.98;97429.41;5069897;28;20325;-58
2021/12/27 10:40:52;;;;;;;9.40;4.17;;;;;;;-6.33;77.32;97421.56;5070158;28;20295;-58
2021/12/27 10:43:33;;;;;;;12.43;4.30;;;;;;;-6.28;76.15;97418.97;5069238;28;20631;-59
2021/12/27 10:46:01;;;;;;;10.20;3.60;;;;;;;-6.29;75.93;97423.22;5066772;28;20410;-60
2021/12/27 10:48:34;;;;;;;6.47;2.73;;;;;;;-6.28;76.14;97416.41;5070238;28;20342;-58
2021/12/27 10:51:01;;;;;;;11.55;4.22;;;;;;;-6.27;76.55;97416.38;5067015;28;20723;-58
2021/12/27 10:53:46;;;;;;;7.97;2.93;;;;;;;-6.42;75.66;97412.25;5068967;28;20076;-58
2021/12/27 10:56:14;;;;;;;14.33;4.03;;;;;;;-6.46;76.26;97405.47;5067271;28;20302;-70
2021/12/27 10:58:48;;;;;;;8.60;3.67;;;;;;;-6.42;76.43;97403.72;5068725;28;20287;-62
2021/12/27 11:01:18;;;;;;;8.80;3.88;;;;;;;-6.41;77.02;97403.72;5066935;28;20298;-64
2021/12/27 11:03:48;;;;;;;13.03;4.97;;;;;;;-6.45;76.45;97398.63;5068887;28;20063;-63
2021/12/27 11:06:20;;;;;;;12.00;4.17;;;;;;;-6.40;76.73;97392.59;5067491;28;20684;-62
2021/12/27 11:08:47;;;;;;;11.47;5.07;;;;;;;-6.52;76.96;97390.19;5069505;28;20328;-63
2021/12/27 11:11:16;;;;;;;14.50;5.43;;;;;;;-6.60;76.65;97379.16;5068151;28;20286;-63
2021/12/27 11:13:45;;;;;;;13.27;5.50;;;;;;;-6.51;77.12;97386.75;5069626;28;20754;-64
2021/12/27 11:16:12;;;;;;;13.03;4.83;;;;;;;-6.34;77.47;97384.00;5069062;28;20346;-61
2021/12/27 11:18:39;;;;;;;14.00;5.10;;;;;;;-6.17;77.80;97378.72;5069301;28;20305;-63